Time;durP1;ratioP1;P1;durP2;ratioP2;P2;SDS_P1;SDS_P2;PMS_P1;PMS_P2;Temp;Humidity;BMP_temperature;BMP_pressure;BME280_temperature;BME280_humidity;BME280_pressure;Samples;Min_cycle;Max_cycle;Signal;HPM_P1;HPM_P2
2022/07/26 00:01:20;;;;;;;15.73;12.48;;;;;;;22.92;100.00;99218.41;4980650;28;20125;-75
2022/07/26 00:03:47;;;;;;;16.40;11.30;;;;;;;22.94;100.00;99226.25;4985109;28;20437;-74
2022/07/26 00:06:13;;;;;;;16.65;12.35;;;;;;;22.99;100.00;99229.88;4980066;28;20035;-74
2022/07/26 00:08:38;;;;;;;15.55;11.85;;;;;;;23.01;100.00;99232.34;4982447;28;20137;-74
2022/07/26 00:11:04;;;;;;;20.15;11.68;;;;;;;23.05;100.00;99222.75;4980518;28;20046;-76
2022/07/26 00:13:31;;;;;;;16.67;11.88;;;;;;;23.10;100.00;99231.78;4983000;28;20093;-74
2022/07/26 00:15:56;;;;;;;12.77;11.10;;;;;;;23.11;100.00;99228.03;4983178;28;20027;-74
2022/07/26 00:18:22;;;;;;;15.32;12.45;;;;;;;23.12;100.00;99228.84;4983289;28;20109;-74
2022/07/26 00:20:48;;;;;;;20.58;12.40;;;;;;;23.14;100.00;99214.13;4985579;28;20046;-75
2022/07/26 00:23:14;;;;;;;15.20;11.35;;;;;;;23.13;100.00;99204.41;4980775;28;20477;-73
2022/07/26 00:25:40;;;;;;;13.50;11.90;;;;;;;23.14;100.00;99206.06;4982906;28;20067;-74
2022/07/26 00:28:06;;;;;;;15.73;12.50;;;;;;;23.17;100.00;99208.28;4980202;28;20101;-73
2022/07/26 00:30:33;;;;;;;14.63;11.77;;;;;;;23.19;100.00;99208.88;4983685;28;20063;-74
2022/07/26 00:32:59;;;;;;;13.10;11.77;;;;;;;23.23;100.00;99209.22;4982053;28;20394;-75
2022/07/26 00:35:24;;;;;;;17.33;12.45;;;;;;;23.22;100.00;99186.84;4980457;28;20356;-75
2022/07/26 00:37:50;;;;;;;14.90;11.80;;;;;;;23.25;100.00;99185.56;4982610;28;20035;-74
2022/07/26 00:40:16;;;;;;;15.00;12.82;;;;;;;23.20;100.00;99185.47;4980284;28;20019;-73
2022/07/26 00:42:42;;;;;;;15.95;14.23;;;;;;;23.17;100.00;99180.53;4981840;28;20053;-74
2022/07/26 00:45:09;;;;;;;15.35;13.75;;;;;;;23.09;100.00;99187.06;4982974;28;20376;-74
2022/07/26 00:47:36;;;;;;;22.70;14.48;;;;;;;23.08;100.00;99182.75;4983000;28;20503;-74
2022/07/26 00:50:04;;;;;;;19.42;15.55;;;;;;;23.07;100.00;99178.44;4983152;28;20026;-74
2022/07/26 00:52:30;;;;;;;19.15;15.55;;;;;;;22.95;100.00;99172.22;4982594;28;20438;-74
2022/07/26 00:54:56;;;;;;;25.00;17.08;;;;;;;22.97;100.00;99186.25;4976981;28;20026;-74
2022/07/26 00:57:23;;;;;;;24.42;19.23;;;;;;;22.94;100.00;99178.63;4978829;28;20022;-74
2022/07/26 00:59:49;;;;;;;24.33;21.75;;;;;;;22.94;100.00;99180.50;4984557;28;20387;-74
2022/07/26 01:02:17;;;;;;;26.42;23.65;;;;;;;22.96;100.00;99187.31;4982175;28;20672;-73
2022/07/26 01:04:43;;;;;;;27.13;24.20;;;;;;;22.97;100.00;99183.56;4982034;28;20408;-74
2022/07/26 01:07:11;;;;;;;32.20;28.73;;;;;;;22.95;100.00;99180.28;4983742;28;20038;-74
2022/07/26 01:09:39;;;;;;;29.40;25.02;;;;;;;22.97;100.00;99178.19;4987133;28;20089;-75
2022/07/26 01:12:05;;;;;;;30.48;24.65;;;;;;;22.99;100.00;99180.63;4987727;28;20026;-73
2022/07/26 01:14:31;;;;;;;29.30;25.65;;;;;;;22.99;100.00;99192.22;4981849;28;20031;-74
2022/07/26 01:16:57;;;;;;;25.27;22.60;;;;;;;23.00;100.00;99182.28;4985510;28;20034;-75
2022/07/26 01:19:22;;;;;;;23.65;20.30;;;;;;;23.00;100.00;99175.00;4985073;28;20125;-74
2022/07/26 01:21:50;;;;;;;22.92;20.60;;;;;;;22.95;100.00;99180.28;4984631;28;20143;-74
2022/07/26 01:24:16;;;;;;;23.83;20.30;;;;;;;22.87;100.00;99188.69;4984696;28;20485;-74
2022/07/26 01:26:42;;;;;;;20.70;18.50;;;;;;;22.90;100.00;99193.59;4987756;28;20085;-74
2022/07/26 01:29:07;;;;;;;19.92;17.73;;;;;;;22.90;100.00;99198.16;4986724;28;20026;-74
2022/07/26 01:31:33;;;;;;;20.75;17.60;;;;;;;22.82;100.00;99202.00;4985364;28;20069;-74
2022/07/26 01:33:59;;;;;;;19.63;16.55;;;;;;;22.75;100.00;99206.66;4986323;28;20030;-74
2022/07/26 01:36:24;;;;;;;23.50;17.00;;;;;;;22.75;100.00;99201.28;4987014;28;20118;-74
2022/07/26 01:38:50;;;;;;;21.10;16.15;;;;;;;22.73;100.00;99195.31;4983008;28;20034;-75
2022/07/26 01:41:16;;;;;;;19.98;15.93;;;;;;;22.62;100.00;99190.69;4985821;28;20034;-74
2022/07/26 01:43:42;;;;;;;20.52;15.88;;;;;;;22.60;100.00;99192.78;4985007;28;20027;-74
2022/07/26 01:46:08;;;;;;;19.25;15.93;;;;;;;22.62;100.00;99185.31;4986149;28;20027;-74
2022/07/26 01:48:34;;;;;;;21.05;15.80;;;;;;;22.65;100.00;99192.91;4982761;28;20047;-74
2022/07/26 01:51:00;;;;;;;18.77;16.10;;;;;;;22.66;100.00;99186.50;4984875;28;20046;-74
2022/07/26 01:53:26;;;;;;;17.08;15.30;;;;;;;22.62;100.00;99174.56;4986538;28;20395;-74
2022/07/26 01:55:52;;;;;;;20.08;15.50;;;;;;;22.56;100.00;99194.31;4985115;28;20030;-74
2022/07/26 01:58:17;;;;;;;21.33;16.00;;;;;;;22.49;100.00;99196.25;4984834;28;20379;-74
2022/07/26 02:00:43;;;;;;;18.45;15.45;;;;;;;22.51;100.00;99186.91;4984853;28;20047;-74
2022/07/26 02:03:09;;;;;;;16.83;14.68;;;;;;;22.54;100.00;99185.63;4986016;28;20042;-74
2022/07/26 02:05:35;;;;;;;20.90;15.38;;;;;;;22.55;100.00;99182.72;4983608;28;20031;-74
2022/07/26 02:08:00;;;;;;;24.05;16.17;;;;;;;22.59;100.00;99185.78;4986157;28;20035;-74
2022/07/26 02:11:09;;;;;;;17.30;14.98;;;;;;;22.61;100.00;99183.69;4982948;28;20038;-74
2022/07/26 02:13:15;;;;;;;22.42;16.23;;;;;;;22.60;100.00;99176.66;4976049;28;20434;-74
2022/07/26 02:15:41;;;;;;;20.92;15.68;;;;;;;22.54;100.00;99182.94;4983653;28;20035;-75
2022/07/26 02:18:07;;;;;;;17.35;15.55;;;;;;;22.55;100.00;99180.03;4985810;28;20039;-74
2022/07/26 02:20:33;;;;;;;17.67;15.38;;;;;;;22.59;100.00;99180.38;4982415;28;20031;-75
2022/07/26 02:23:02;;;;;;;21.55;16.65;;;;;;;22.62;100.00;99172.66;4987917;28;20040;-75
2022/07/26 02:25:28;;;;;;;17.53;15.70;;;;;;;22.68;100.00;99170.97;4986067;28;20375;-73
2022/07/26 02:27:54;;;;;;;21.20;16.38;;;;;;;22.71;100.00;99170.47;4985284;28;20345;-74
2022/07/26 02:30:20;;;;;;;19.95;16.27;;;;;;;22.69;100.00;99161.81;4976277;28;20043;-74
2022/07/26 02:32:46;;;;;;;19.13;16.42;;;;;;;22.62;100.00;99166.50;4986204;28;20118;-75
2022/07/26 02:35:12;;;;;;;18.42;15.77;;;;;;;22.65;100.00;99163.34;4984342;28;20712;-74
2022/07/26 02:37:39;;;;;;;17.42;15.55;;;;;;;22.68;100.00;99157.50;4983918;28;20100;-75
2022/07/26 02:40:06;;;;;;;19.42;15.07;;;;;;;22.67;100.00;99155.88;4980633;28;20367;-74
2022/07/26 02:42:32;;;;;;;16.33;14.63;;;;;;;22.68;100.00;99154.81;4985893;28;20094;-74
2022/07/26 02:44:58;;;;;;;17.50;14.93;;;;;;;22.61;100.00;99157.63;4982510;28;20497;-73
2022/07/26 02:47:23;;;;;;;19.58;15.60;;;;;;;22.50;100.00;99165.66;4985261;28;20035;-75
2022/07/26 02:49:49;;;;;;;25.88;16.38;;;;;;;22.45;100.00;99155.56;4983523;28;20030;-74
2022/07/26 02:52:15;;;;;;;16.55;14.77;;;;;;;22.39;100.00;99159.16;4986049;28;20042;-73
2022/07/26 02:54:40;;;;;;;18.35;14.90;;;;;;;22.34;100.00;99162.53;4985555;28;20033;-75
2022/07/26 02:57:06;;;;;;;19.38;14.07;;;;;;;22.28;100.00;99162.63;4984022;28;20069;-74
2022/07/26 02:59:32;;;;;;;18.02;15.00;;;;;;;22.24;100.00;99156.06;4985154;28;20053;-74
2022/07/26 03:01:57;;;;;;;20.38;15.43;;;;;;;22.20;100.00;99161.09;4983796;28;20045;-75
2022/07/26 03:04:23;;;;;;;20.02;15.05;;;;;;;22.15;100.00;99163.63;4985004;28;20109;-74
2022/07/26 03:06:49;;;;;;;17.13;14.43;;;;;;;22.09;100.00;99161.81;4979522;28;20038;-74
2022/07/26 03:09:14;;;;;;;20.30;15.98;;;;;;;22.07;100.00;99160.44;4989198;28;20050;-74
2022/07/26 03:11:40;;;;;;;17.48;15.65;;;;;;;22.06;100.00;99156.94;4984022;28;20062;-74
2022/07/26 03:14:06;;;;;;;18.13;14.88;;;;;;;22.09;100.00;99155.66;4985615;28;20034;-75
2022/07/26 03:16:31;;;;;;;17.83;14.77;;;;;;;22.09;100.00;99156.47;4983810;28;20113;-74
2022/07/26 03:18:58;;;;;;;16.35;14.43;;;;;;;22.15;100.00;99158.25;4984501;28;20386;-75
2022/07/26 03:21:24;;;;;;;18.77;16.10;;;;;;;22.15;100.00;99147.50;4984689;28;20026;-74
2022/07/26 03:23:49;;;;;;;25.20;16.67;;;;;;;22.12;100.00;99141.75;4982781;28;20045;-74
2022/07/26 03:26:15;;;;;;;20.10;15.18;;;;;;;22.16;100.00;99143.75;4984192;28;20041;-74
2022/07/26 03:28:43;;;;;;;20.58;15.23;;;;;;;22.25;100.00;99142.41;4984593;28;20348;-74
2022/07/26 03:31:09;;;;;;;20.48;14.95;;;;;;;22.25;100.00;99141.59;4979829;28;20119;-74
2022/07/26 03:33:35;;;;;;;25.40;15.90;;;;;;;22.24;100.00;99134.56;4981464;28;20034;-74
2022/07/26 03:36:00;;;;;;;19.92;15.82;;;;;;;22.19;100.00;99137.94;4982656;28;20342;-73
2022/07/26 03:38:26;;;;;;;18.10;16.27;;;;;;;22.13;100.00;99138.03;4983051;28;20356;-72
2022/07/26 03:40:51;;;;;;;18.55;15.57;;;;;;;22.10;100.00;99141.16;4979176;28;20026;-74
2022/07/26 03:43:18;;;;;;;18.70;15.27;;;;;;;22.07;100.00;99147.81;4984747;28;20475;-72
2022/07/26 03:45:44;;;;;;;19.83;16.08;;;;;;;22.05;100.00;99152.59;4978322;28;20039;-73
2022/07/26 03:48:10;;;;;;;21.45;15.35;;;;;;;22.08;100.00;99146.78;4983682;28;20502;-74
2022/07/26 03:50:36;;;;;;;20.10;15.38;;;;;;;22.05;100.00;99141.84;4983078;28;20026;-74
2022/07/26 03:53:02;;;;;;;18.85;16.30;;;;;;;22.10;100.00;99143.84;4983195;28;20500;-74
2022/07/26 03:58:33;;;;;;;20.88;16.90;;;;;;;22.06;100.00;99148.88;4930842;29;20039;-73
2022/07/26 04:00:59;;;;;;;20.60;16.42;;;;;;;22.03;100.00;99150.13;4931221;29;20070;-72
2022/07/26 04:03:24;;;;;;;20.42;16.42;;;;;;;21.98;100.00;99146.47;4932559;29;20075;-72
2022/07/26 04:05:50;;;;;;;19.42;16.65;;;;;;;21.94;100.00;99156.84;4927949;29;20579;-73
2022/07/26 04:08:16;;;;;;;21.35;16.98;;;;;;;21.89;100.00;99139.75;4915744;29;20043;-73
2022/07/26 04:10:50;;;;;;;28.25;18.85;;;;;;;21.90;100.00;99139.53;4931098;29;20122;-73
2022/07/26 04:13:16;;;;;;;22.60;17.33;;;;;;;21.95;100.00;99144.25;4931717;29;20046;-72
2022/07/26 04:15:43;;;;;;;22.52;17.33;;;;;;;21.94;100.00;99137.22;4929079;29;20106;-73
2022/07/26 04:18:09;;;;;;;23.60;17.35;;;;;;;21.96;100.00;99143.22;4929249;29;20120;-73
2022/07/26 04:20:34;;;;;;;20.52;17.08;;;;;;;21.99;100.00;99142.75;4930807;29;20044;-75
2022/07/26 04:23:00;;;;;;;20.75;16.83;;;;;;;22.02;100.00;99142.31;4927080;29;20166;-75
2022/07/26 04:25:26;;;;;;;21.25;18.08;;;;;;;21.95;100.00;99141.56;4930817;29;20028;-72
2022/07/26 04:27:51;;;;;;;22.50;17.83;;;;;;;21.93;100.00;99146.31;4930726;29;20061;-73
2022/07/26 04:30:17;;;;;;;21.10;17.30;;;;;;;21.90;100.00;99142.22;4973449;28;20096;-74
2022/07/26 04:32:43;;;;;;;20.23;17.42;;;;;;;21.96;100.00;99153.97;4981951;28;20035;-74
2022/07/26 04:35:09;;;;;;;21.02;17.45;;;;;;;21.99;100.00;99150.81;4982856;28;20081;-73
2022/07/26 04:37:42;;;;;;;21.67;18.27;;;;;;;21.68;100.00;99143.72;4984374;28;20030;-74
2022/07/26 04:40:09;;;;;;;21.77;17.88;;;;;;;21.67;100.00;99149.31;4980013;28;20033;-75
2022/07/26 04:42:35;;;;;;;22.17;15.93;;;;;;;21.75;100.00;99157.06;4984783;28;20037;-75
2022/07/26 04:45:02;;;;;;;17.67;15.77;;;;;;;21.64;100.00;99151.41;4986760;28;20062;-75
2022/07/26 04:47:28;;;;;;;17.98;16.10;;;;;;;21.30;100.00;99160.03;4986586;28;20116;-75
2022/07/26 04:49:53;;;;;;;19.52;16.25;;;;;;;21.09;100.00;99161.19;4980268;28;20128;-75
2022/07/26 04:52:19;;;;;;;18.98;17.10;;;;;;;20.90;100.00;99159.53;4987365;28;20027;-76
2022/07/26 04:54:44;;;;;;;22.08;19.33;;;;;;;20.79;100.00;99163.72;4985673;28;20057;-76
2022/07/26 04:57:10;;;;;;;26.00;20.02;;;;;;;20.91;100.00;99163.81;4984631;28;20186;-75
2022/07/26 04:59:35;;;;;;;20.70;17.30;;;;;;;20.89;100.00;99173.16;4985415;28;20112;-75
2022/07/26 05:02:02;;;;;;;19.50;17.52;;;;;;;20.88;100.00;99177.69;4984616;28;20034;-75
2022/07/26 05:04:27;;;;;;;21.60;18.88;;;;;;;20.80;100.00;99170.72;4982704;28;20027;-75
2022/07/26 05:06:53;;;;;;;28.40;18.90;;;;;;;20.92;100.00;99164.66;4985933;28;20041;-75
2022/07/26 05:09:18;;;;;;;21.40;18.92;;;;;;;21.01;100.00;99166.03;4985492;28;20090;-75
2022/07/26 05:11:44;;;;;;;22.92;19.70;;;;;;;20.96;100.00;99163.19;4985549;28;20042;-74
2022/07/26 05:14:09;;;;;;;22.48;19.00;;;;;;;21.03;100.00;99166.66;4981078;28;20102;-75
2022/07/26 05:16:35;;;;;;;22.83;19.38;;;;;;;21.02;100.00;99173.06;4985861;28;20027;-75
2022/07/26 05:19:01;;;;;;;26.35;19.85;;;;;;;21.07;100.00;99174.03;4982681;28;20038;-76
2022/07/26 05:21:26;;;;;;;24.05;19.90;;;;;;;21.12;100.00;99173.38;4982961;28;20030;-75
2022/07/26 05:23:54;;;;;;;20.83;18.67;;;;;;;21.31;100.00;99188.50;4980711;28;20050;-75
2022/07/26 05:26:20;;;;;;;26.33;20.70;;;;;;;21.36;100.00;99183.28;4986877;28;20034;-75
2022/07/26 05:28:46;;;;;;;24.58;19.58;;;;;;;21.28;100.00;99183.56;4982302;28;20034;-75
2022/07/26 05:31:11;;;;;;;20.48;18.38;;;;;;;21.39;100.00;99185.53;4985837;28;20035;-76
2022/07/26 05:33:37;;;;;;;22.27;19.55;;;;;;;21.40;100.00;99192.53;4984575;28;20038;-74
2022/07/26 05:36:03;;;;;;;22.05;19.00;;;;;;;21.56;100.00;99178.53;4978986;28;20050;-74
2022/07/26 05:38:28;;;;;;;25.67;19.83;;;;;;;21.65;100.00;99174.53;4983287;28;20070;-73
2022/07/26 05:40:54;;;;;;;21.38;19.08;;;;;;;21.80;100.00;99170.63;4983146;28;20097;-73
2022/07/26 05:43:19;;;;;;;24.63;20.35;;;;;;;21.93;100.00;99173.16;4986559;28;20093;-74
2022/07/26 05:45:45;;;;;;;22.63;19.65;;;;;;;22.10;100.00;99171.53;4983141;28;20085;-73
2022/07/26 05:48:11;;;;;;;23.73;19.63;;;;;;;22.15;100.00;99174.38;4983829;28;20078;-73
2022/07/26 05:50:36;;;;;;;21.75;19.45;;;;;;;22.16;100.00;99177.88;4983341;28;20034;-72
2022/07/26 05:53:02;;;;;;;22.08;19.60;;;;;;;22.21;100.00;99173.47;4984549;28;20034;-75
2022/07/26 05:55:27;;;;;;;22.52;19.52;;;;;;;22.08;100.00;99173.66;4983059;28;20018;-77
2022/07/26 05:57:53;;;;;;;22.60;20.23;;;;;;;22.26;100.00;99173.63;4965964;28;20035;-78
2022/07/26 06:00:19;;;;;;;24.75;19.63;;;;;;;22.27;100.00;99169.03;4963346;28;20031;-79
2022/07/26 06:02:45;;;;;;;21.15;18.95;;;;;;;22.42;100.00;99159.53;4969205;28;20498;-77
2022/07/26 06:05:10;;;;;;;22.13;19.23;;;;;;;22.62;100.00;99175.34;4976711;28;20031;-76
2022/07/26 06:07:36;;;;;;;26.58;19.08;;;;;;;22.70;100.00;99168.84;4292260;28;10000702;-75
2022/07/26 06:10:03;;;;;;;25.40;19.48;;;;;;;22.78;100.00;99173.94;4967427;28;20039;-77
2022/07/26 06:12:29;;;;;;;21.48;18.08;;;;;;;22.88;100.00;99171.50;4970588;28;20034;-78
2022/07/26 06:14:55;;;;;;;19.38;17.35;;;;;;;23.02;100.00;99175.63;4979982;28;20045;-78
2022/07/26 06:17:20;;;;;;;23.83;19.17;;;;;;;23.15;100.00;99167.28;4982423;28;20043;-77
2022/07/26 06:19:46;;;;;;;20.45;18.33;;;;;;;23.21;100.00;99162.84;4982912;28;20045;-74
2022/07/26 06:22:12;;;;;;;20.40;18.38;;;;;;;23.20;100.00;99161.22;4970353;28;20134;-76
2022/07/26 06:24:37;;;;;;;23.10;19.58;;;;;;;23.19;100.00;99164.97;4975828;28;20070;-78
2022/07/26 06:27:04;;;;;;;23.90;18.38;;;;;;;23.14;100.00;99165.69;4975374;28;20043;-74
2022/07/26 06:29:30;;;;;;;24.60;18.98;;;;;;;23.21;100.00;99163.66;4972936;28;20476;-74
2022/07/26 06:31:56;;;;;;;24.70;19.35;;;;;;;23.31;100.00;99168.50;4631469;28;10000625;-74
2022/07/26 06:34:23;;;;;;;24.80;19.48;;;;;;;23.35;100.00;99160.75;4966323;28;20026;-76
2022/07/26 06:36:48;;;;;;;19.70;17.70;;;;;;;23.43;100.00;99165.78;4982012;28;20042;-74
2022/07/26 06:39:14;;;;;;;22.92;18.20;;;;;;;23.51;100.00;99162.75;4980635;28;20093;-77
2022/07/26 06:41:40;;;;;;;29.17;20.55;;;;;;;23.56;100.00;99165.59;4979756;28;20065;-76
2022/07/26 06:44:05;;;;;;;21.50;17.92;;;;;;;23.63;100.00;99155.47;4983790;28;20042;-78
2022/07/26 06:46:31;;;;;;;21.42;18.45;;;;;;;23.69;100.00;99165.31;4980810;28;20045;-76
2022/07/26 06:48:57;;;;;;;22.77;19.13;;;;;;;23.77;100.00;99167.66;4984566;28;20039;-76
2022/07/26 06:51:23;;;;;;;26.40;18.83;;;;;;;23.79;100.00;99165.56;4982289;28;20033;-73
2022/07/26 06:53:49;;;;;;;22.60;18.15;;;;;;;23.81;100.00;99163.41;4984155;28;20159;-75
2022/07/26 06:56:16;;;;;;;21.75;17.20;;;;;;;23.86;100.00;99163.53;4980548;28;20451;-76
2022/07/26 06:58:42;;;;;;;19.52;17.30;;;;;;;23.95;100.00;99158.59;4985164;28;20030;-75
2022/07/26 07:01:08;;;;;;;18.85;17.05;;;;;;;24.00;100.00;99162.19;4983222;28;20502;-76
2022/07/26 07:03:33;;;;;;;17.23;15.63;;;;;;;24.02;100.00;99161.97;4981286;28;20112;-76
2022/07/26 07:05:59;;;;;;;18.10;16.00;;;;;;;24.06;100.00;99166.63;4979877;28;20027;-74
2022/07/26 07:08:25;;;;;;;26.60;18.92;;;;;;;24.09;100.00;99166.16;4974289;28;20041;-74
2022/07/26 07:10:51;;;;;;;17.83;16.02;;;;;;;24.13;100.00;99165.69;4978381;28;20053;-74
2022/07/26 07:13:18;;;;;;;25.20;16.90;;;;;;;24.17;100.00;99161.44;4983796;28;20502;-75
2022/07/26 07:15:44;;;;;;;26.98;20.42;;;;;;;24.15;100.00;99156.28;4979897;28;20038;-74
2022/07/26 07:18:09;;;;;;;30.63;22.77;;;;;;;24.20;100.00;99166.41;4981766;28;20054;-76
2022/07/26 07:20:38;;;;;;;30.15;23.23;;;;;;;24.29;100.00;99164.94;4984407;28;20038;-75
2022/07/26 07:23:04;;;;;;;31.92;26.58;;;;;;;24.38;100.00;99158.13;4981895;28;20039;-74
2022/07/26 07:25:29;;;;;;;35.28;26.05;;;;;;;24.36;100.00;99160.22;4984816;28;20110;-75
2022/07/26 07:27:55;;;;;;;36.38;26.05;;;;;;;24.27;100.00;99159.00;4982891;28;20763;-76
2022/07/26 07:30:21;;;;;;;33.83;26.95;;;;;;;24.37;100.00;99161.88;4984909;28;20041;-74
2022/07/26 07:32:47;;;;;;;35.33;23.92;;;;;;;24.43;100.00;99159.03;4980741;28;20035;-75
2022/07/26 07:35:12;;;;;;;30.95;24.33;;;;;;;24.55;100.00;99158.16;4984916;28;20063;-78
2022/07/26 07:37:38;;;;;;;31.35;23.17;;;;;;;24.66;100.00;99155.38;4987657;28;20033;-79
2022/07/26 07:40:08;;;;;;;31.38;21.67;;;;;;;24.56;100.00;99149.81;4987466;28;20026;-81
2022/07/26 07:42:34;;;;;;;22.60;20.20;;;;;;;24.55;100.00;99158.97;4984684;28;20022;-84
2022/07/26 07:45:00;;;;;;;25.42;20.02;;;;;;;24.63;100.00;99150.47;4992180;28;20049;-81
2022/07/26 07:47:26;;;;;;;22.02;19.33;;;;;;;24.75;100.00;99148.50;4983022;28;20035;-78
2022/07/26 07:49:51;;;;;;;23.95;20.17;;;;;;;24.84;100.00;99155.16;4984424;28;20034;-77
2022/07/26 07:52:18;;;;;;;23.30;19.48;;;;;;;24.99;100.00;99153.78;4986208;28;20031;-78
2022/07/26 07:54:43;;;;;;;29.38;21.40;;;;;;;25.10;100.00;99155.56;4982064;28;20049;-74
2022/07/26 07:57:09;;;;;;;20.23;18.10;;;;;;;25.23;100.00;99157.94;4978799;28;20042;-74
2022/07/26 07:59:35;;;;;;;23.00;18.85;;;;;;;25.37;100.00;99151.16;4980362;28;20039;-77
2022/07/26 08:02:00;;;;;;;21.65;17.45;;;;;;;25.52;100.00;99143.25;4974453;28;20046;-76
2022/07/26 08:04:29;;;;;;;21.10;18.90;;;;;;;25.60;100.00;99140.16;4983829;28;20038;-76
2022/07/26 08:06:58;;;;;;;18.90;15.90;;;;;;;25.50;100.00;99148.09;4982981;28;20044;-75
2022/07/26 08:09:23;;;;;;;16.77;14.43;;;;;;;25.50;100.00;99144.56;4980960;28;20030;-79
2022/07/26 08:11:49;;;;;;;16.80;13.93;;;;;;;25.58;100.00;99147.69;4981979;28;20034;-75
2022/07/26 08:14:16;;;;;;;15.50;12.73;;;;;;;25.67;100.00;99146.19;4982332;28;20034;-74
2022/07/26 08:16:43;;;;;;;15.90;13.40;;;;;;;25.75;100.00;99149.50;4977342;28;20030;-75
2022/07/26 08:19:12;;;;;;;13.32;11.80;;;;;;;25.88;100.00;99151.84;4979883;28;20431;-74
2022/07/26 08:21:38;;;;;;;13.18;11.77;;;;;;;26.02;100.00;99158.50;4979832;28;20031;-75
2022/07/26 08:24:04;;;;;;;12.48;11.43;;;;;;;26.08;100.00;99152.09;4980405;28;20035;-76
2022/07/26 08:26:30;;;;;;;14.23;11.15;;;;;;;26.17;100.00;99155.97;4980843;28;20034;-74
2022/07/26 08:28:56;;;;;;;13.98;11.60;;;;;;;26.27;100.00;99155.31;4980804;28;20042;-75
2022/07/26 08:31:21;;;;;;;14.93;12.35;;;;;;;26.32;100.00;99153.47;4979374;28;20037;-75
2022/07/26 08:33:47;;;;;;;13.27;12.00;;;;;;;26.32;100.00;99153.47;4981581;28;20039;-74
2022/07/26 08:36:16;;;;;;;14.88;11.52;;;;;;;26.42;100.00;99141.94;4981793;28;20109;-75
2022/07/26 08:38:43;;;;;;;14.18;12.70;;;;;;;26.54;100.00;99150.72;4981816;28;20450;-76
2022/07/26 08:41:09;;;;;;;12.48;11.18;;;;;;;26.65;100.00;99147.03;4976414;28;20436;-75
2022/07/26 08:43:34;;;;;;;11.55;10.50;;;;;;;26.75;100.00;99139.00;4985068;28;20072;-77
2022/07/26 08:46:01;;;;;;;18.85;11.07;;;;;;;26.86;100.00;99153.47;4979242;28;20034;-76
2022/07/26 08:48:27;;;;;;;12.25;10.90;;;;;;;26.85;100.00;99146.41;4982739;28;20442;-77
2022/07/26 08:50:54;;;;;;;13.68;10.88;;;;;;;26.94;100.00;99144.88;4980908;28;20050;-74
2022/07/26 08:53:23;;;;;;;14.90;10.68;;;;;;;27.06;100.00;99141.97;4983018;28;20069;-75
2022/07/26 08:55:48;;;;;;;15.25;10.40;;;;;;;27.17;100.00;99139.09;4982344;28;20042;-76
2022/07/26 08:58:14;;;;;;;12.65;10.68;;;;;;;27.22;100.00;99141.81;4978548;28;20181;-76
2022/07/26 09:00:44;;;;;;;13.68;11.65;;;;;;;27.21;100.00;99142.94;4979955;28;20069;-77
2022/07/26 09:03:24;;;;;;;10.93;9.85;;;;;;;27.20;100.00;99149.41;4979959;28;20439;-77
2022/07/26 09:05:55;;;;;;;;;;;;;;;27.24;100.00;99145.09;4980131;28;20162;-75
2022/07/26 09:08:29;;;;;;;13.35;9.77;;;;;;;27.26;100.00;99142.94;4976223;28;20299;-81
2022/07/26 09:11:00;;;;;;;10.40;9.50;;;;;;;27.35;100.00;99145.97;4976647;28;20443;-77
2022/07/26 09:13:47;;;;;;;14.45;10.52;;;;;;;27.38;100.00;99144.66;4982022;28;20448;-75
2022/07/26 09:16:13;;;;;;;11.20;9.02;;;;;;;27.34;100.00;99138.91;4980212;28;20041;-78
2022/07/26 09:18:40;;;;;;;11.68;10.32;;;;;;;27.48;100.00;99141.97;4975276;28;20034;-76
2022/07/26 09:21:07;;;;;;;11.00;9.82;;;;;;;27.60;100.00;99137.22;4982009;28;20041;-77
2022/07/26 09:23:41;;;;;;;10.80;9.68;;;;;;;27.68;100.00;99134.00;4972754;28;20138;-77
2022/07/26 09:26:07;;;;;;;10.50;9.32;;;;;;;27.76;100.00;99125.34;4979004;28;20392;-78
2022/07/26 09:28:33;;;;;;;10.07;8.98;;;;;;;27.86;100.00;99125.41;4983808;28;20038;-80
2022/07/26 09:31:04;;;;;;;13.45;10.25;;;;;;;27.91;100.00;99122.72;4984033;28;20030;-84
2022/07/26 09:33:45;;;;;;;10.40;9.30;;;;;;;27.97;100.00;99121.66;4981101;28;20437;-81
2022/07/26 09:36:11;;;;;;;13.00;9.43;;;;;;;27.99;100.00;99124.88;4982375;28;20400;-80
2022/07/26 09:38:52;;;;;;;10.40;9.40;;;;;;;28.09;100.00;99124.94;4989984;28;20042;-80
2022/07/26 09:41:45;;;;;;;11.70;9.80;;;;;;;28.08;99.73;99123.31;4992427;28;20073;-78
2022/07/26 09:44:22;;;;;;;9.70;8.45;;;;;;;28.14;99.87;99120.63;4989747;28;20046;-79
2022/07/26 09:46:57;;;;;;;12.38;9.48;;;;;;;28.21;99.40;99121.19;4990758;28;20037;-79
2022/07/26 09:49:24;;;;;;;10.85;9.75;;;;;;;28.26;99.02;99124.75;4986275;28;20094;-81
2022/07/26 09:51:52;;;;;;;9.43;8.52;;;;;;;28.21;98.47;99123.91;4995373;28;20046;-84
2022/07/26 09:54:30;;;;;;;11.35;8.75;;;;;;;28.30;99.00;99122.28;4990104;28;20043;-81
2022/07/26 09:56:56;;;;;;;10.45;8.95;;;;;;;28.24;98.29;99124.19;4986951;28;20368;-77
2022/07/26 09:59:25;;;;;;;10.98;8.68;;;;;;;28.34;98.50;99120.66;4985287;28;20034;-76
2022/07/26 10:01:54;;;;;;;9.48;8.57;;;;;;;28.44;98.67;99115.28;4984936;28;20050;-74
2022/07/26 10:04:20;;;;;;;9.30;8.40;;;;;;;28.59;98.80;99112.56;4983437;28;20406;-75
2022/07/26 10:06:47;;;;;;;9.30;8.40;;;;;;;28.68;98.14;99119.09;4986767;28;20042;-74
2022/07/26 10:09:14;;;;;;;10.45;8.65;;;;;;;28.63;96.44;99113.63;4986399;28;20030;-76
2022/07/26 10:11:52;;;;;;;10.73;9.80;;;;;;;28.69;96.19;99112.56;4986073;28;20031;-74
2022/07/26 10:14:37;;;;;;;10.65;8.95;;;;;;;28.76;96.49;99112.31;4984855;28;20030;-77
2022/07/26 10:17:28;;;;;;;9.15;8.40;;;;;;;28.82;96.17;99109.34;4987737;28;20061;-73
2022/07/26 10:20:03;;;;;;;9.02;8.13;;;;;;;28.85;96.33;99118.84;4980554;28;20031;-75
2022/07/26 10:22:35;;;;;;;10.02;8.20;;;;;;;28.90;96.15;99107.97;4983956;28;20194;-75
2022/07/26 10:25:16;;;;;;;9.13;8.43;;;;;;;28.98;96.30;99114.78;4981931;28;20061;-73
2022/07/26 10:27:48;;;;;;;9.45;8.60;;;;;;;29.09;96.13;99105.53;4984469;28;20068;-74
2022/07/26 10:30:21;;;;;;;9.35;8.55;;;;;;;29.33;94.69;99111.22;4984817;28;20034;-73
2022/07/26 10:32:55;;;;;;;8.98;8.10;;;;;;;29.55;93.19;99104.34;4981562;28;20090;-73
2022/07/26 10:35:34;;;;;;;11.75;8.55;;;;;;;29.66;92.77;99100.50;4977565;28;20035;-71
2022/07/26 10:38:07;;;;;;;9.20;8.45;;;;;;;29.87;91.43;99100.38;4984118;28;20127;-71
2022/07/26 10:40:34;;;;;;;9.98;8.80;;;;;;;29.98;91.42;99099.31;4979785;28;20364;-72
2022/07/26 10:43:09;;;;;;;12.80;8.40;;;;;;;30.00;90.88;99095.19;4983858;28;20058;-74
2022/07/26 10:45:35;;;;;;;9.27;8.55;;;;;;;30.00;90.65;99099.81;4981704;28;20043;-74
2022/07/26 10:48:22;;;;;;;9.43;8.48;;;;;;;30.00;88.80;99094.38;4982858;28;20045;-71
2022/07/26 10:50:53;;;;;;;9.73;8.82;;;;;;;30.08;89.36;99097.34;4983045;28;20042;-71
2022/07/26 10:53:26;;;;;;;9.98;8.80;;;;;;;30.08;88.85;99085.63;4982473;28;20029;-71
2022/07/26 10:55:56;;;;;;;9.82;8.85;;;;;;;30.32;86.76;99086.56;4980586;28;20045;-72
2022/07/26 10:58:24;;;;;;;8.77;7.97;;;;;;;30.39;87.16;99086.25;4982501;28;20399;-72
2022/07/26 11:01:02;;;;;;;9.50;8.60;;;;;;;30.40;87.36;99080.50;4982199;28;20033;-73
2022/07/26 11:03:38;;;;;;;11.00;8.43;;;;;;;30.43;87.08;99076.41;4984453;28;20026;-73
2022/07/26 11:06:15;;;;;;;8.80;7.90;;;;;;;30.49;86.81;99076.13;4982872;28;20109;-72
2022/07/26 11:08:44;;;;;;;9.95;8.95;;;;;;;30.44;87.16;99067.97;4983478;28;20471;-70
2022/07/26 11:11:12;;;;;;;9.63;8.20;;;;;;;30.57;85.74;99072.00;4984284;28;20058;-71
2022/07/26 11:13:39;;;;;;;9.73;8.25;;;;;;;30.76;83.95;99077.53;4978678;28;20041;-72
2022/07/26 11:16:07;;;;;;;10.75;8.85;;;;;;;30.90;83.06;99078.50;4982266;28;20030;-71